createdAt,value
2019-05-30T00:01:46.043Z,75.55
2019-05-30T00:06:52.181Z,75.45
2019-05-30T00:11:58.574Z,74.86
2019-05-30T00:17:05.196Z,75.24
2019-05-30T00:22:11.457Z,75.32
2019-05-30T00:27:17.234Z,75.17
2019-05-30T00:32:23.301Z,75.40
2019-05-30T00:37:30.800Z,75.26
2019-05-30T00:42:36.775Z,76.67
2019-05-30T00:47:43.152Z,77.68
2019-05-30T00:52:49.028Z,77.18
2019-05-30T00:57:54.982Z,77.81
2019-05-30T01:03:02.834Z,77.62
2019-05-30T01:08:07.630Z,76.90
2019-05-30T01:13:13.522Z,77.10
2019-05-30T01:18:19.389Z,76.33
2019-05-30T01:23:25.256Z,76.16
2019-05-30T01:28:31.112Z,76.35
2019-05-30T01:33:36.992Z,76.74
2019-05-30T01:38:42.970Z,77.42
2019-05-30T01:43:48.824Z,78.79
2019-05-30T01:48:54.635Z,80.13
2019-05-30T01:54:00.984Z,78.59
2019-05-30T01:59:06.951Z,78.59
2019-05-30T02:04:12.927Z,79.04
2019-05-30T02:09:19.001Z,78.94
2019-05-30T02:14:25.075Z,78.93
2019-05-30T02:19:30.937Z,79.21
2019-05-30T02:24:37.471Z,80.26
2019-05-30T02:29:43.397Z,79.97
2019-05-30T02:34:49.369Z,81.43
2019-05-30T02:40:00.067Z,80.66
2019-05-30T02:45:03.724Z,80.55
2019-05-30T02:50:11.578Z,81.51
2019-05-30T02:55:17.445Z,82.82
2019-05-30T03:00:36.425Z,82.28
2019-05-30T03:05:43.318Z,83.15
2019-05-30T03:10:49.211Z,82.09
2019-05-30T03:15:55.477Z,81.46
2019-05-30T03:21:03.157Z,81.16
2019-05-30T03:26:10.763Z,80.37
2019-05-30T03:31:28.054Z,81.42
2019-05-30T03:36:30.602Z,81.90
2019-05-30T03:41:32.993Z,82.22
2019-05-30T03:46:52.282Z,68.65
2019-05-30T03:52:00.301Z,64.27
2019-05-30T03:57:11.405Z,61.22
2019-05-30T04:02:22.906Z,62.31
2019-05-30T04:07:31.216Z,59.03
2019-05-30T04:13:09.900Z,60.35
2019-05-30T04:18:16.657Z,60.36
2019-05-30T04:23:23.805Z,58.33
2019-05-30T04:28:29.842Z,57.21
2019-05-30T04:33:36.030Z,56.67
2019-05-30T04:38:42.397Z,55.40
2019-05-30T04:43:48.461Z,54.59
2019-05-30T04:48:55.546Z,52.23
2019-05-30T04:54:01.512Z,50.49
2019-05-30T04:59:07.700Z,49.02
2019-05-30T05:04:15.373Z,42.48
2019-05-30T05:09:22.403Z,45.45
2019-05-30T05:14:28.604Z,44.30
2019-05-30T05:19:35.682Z,46.08
2019-05-30T05:24:41.686Z,48.15
2019-05-30T05:29:48.125Z,47.78
2019-05-30T05:34:54.571Z,42.76
2019-05-30T05:40:00.682Z,39.47
2019-05-30T05:45:10.555Z,40.18
2019-05-30T05:50:16.903Z,41.31
2019-05-30T05:55:23.000Z,38.01
2019-05-30T06:00:29.545Z,39.91
2019-05-30T06:05:36.069Z,36.96
2019-05-30T06:10:42.607Z,37.77
2019-05-30T06:15:49.071Z,37.56
2019-05-30T06:20:55.486Z,36.16
2019-05-30T06:26:03.131Z,35.59
2019-05-30T06:31:09.978Z,36.69
2019-05-30T06:36:16.112Z,35.44
2019-05-30T06:41:22.167Z,36.57
2019-05-30T06:46:28.466Z,35.52
2019-05-30T06:51:34.728Z,37.56
2019-05-30T06:56:44.586Z,34.20
2019-05-30T07:01:51.839Z,33.64
2019-05-30T07:06:57.018Z,27.91
2019-05-30T07:12:03.302Z,30.30
2019-05-30T07:17:09.910Z,31.20
2019-05-30T07:22:16.241Z,32.79
2019-05-30T07:27:23.718Z,34.89
2019-05-30T07:32:30.056Z,36.99
2019-05-30T07:37:36.405Z,37.89
2019-05-30T07:42:42.479Z,36.73
2019-05-30T07:47:48.552Z,37.26
2019-05-30T07:52:54.566Z,37.95
2019-05-30T07:58:01.067Z,37.83
2019-05-30T08:03:07.317Z,36.31
2019-05-30T08:08:13.301Z,38.87
2019-05-30T08:13:19.308Z,38.92
2019-05-30T08:18:25.439Z,38.93
2019-05-30T08:23:32.070Z,39.61
2019-05-30T08:28:42.347Z,37.66
2019-05-30T08:33:47.550Z,40.79
2019-05-30T08:38:53.735Z,39.93
2019-05-30T08:44:00.017Z,39.60
2019-05-30T08:49:06.794Z,41.07
2019-05-30T08:54:13.947Z,41.66
2019-05-30T08:59:21.085Z,38.79
2019-05-30T09:04:27.174Z,38.76
2019-05-30T09:09:33.144Z,35.66
2019-05-30T09:14:39.649Z,37.40
2019-05-30T09:19:47.486Z,39.68
2019-05-30T09:24:53.819Z,36.56
2019-05-30T09:29:59.886Z,37.89
2019-05-30T09:35:08.931Z,35.05
2019-05-30T09:40:16.486Z,32.83
2019-05-30T09:45:23.248Z,32.43
2019-05-30T09:50:29.503Z,36.36
2019-05-30T09:55:36.184Z,38.68
2019-05-30T10:00:43.476Z,33.37
2019-05-30T10:05:50.597Z,30.34
2019-05-30T10:10:57.109Z,33.83
2019-05-30T10:16:03.457Z,39.23
2019-05-30T10:21:09.534Z,35.46
2019-05-30T10:26:15.938Z,32.62
2019-05-30T10:31:22.081Z,35.36
2019-05-30T10:36:43.182Z,37.97
2019-05-30T10:41:35.436Z,35.18
2019-05-30T10:46:41.359Z,37.41
2019-05-30T10:51:47.849Z,37.54
2019-05-30T10:56:53.883Z,36.23
2019-05-30T11:01:59.860Z,38.65
2019-05-30T11:07:12.013Z,40.20
2019-05-30T11:12:18.360Z,39.30
2019-05-30T11:17:24.522Z,38.30
2019-05-30T11:22:30.612Z,36.58
2019-05-30T11:27:36.894Z,34.87
2019-05-30T11:32:43.190Z,35.47
2019-05-30T11:37:49.229Z,35.37
2019-05-30T11:42:55.522Z,34.70
2019-05-30T11:48:01.641Z,37.10
2019-05-30T11:53:08.212Z,33.44
2019-05-30T11:58:19.004Z,34.38
2019-05-30T12:03:22.358Z,34.77
2019-05-30T12:08:28.352Z,34.13
2019-05-30T12:13:34.568Z,33.51
2019-05-30T12:18:40.682Z,31.54
2019-05-30T12:23:46.855Z,28.27
2019-05-30T12:28:54.128Z,31.30
2019-05-30T12:34:02.526Z,31.74
2019-05-30T12:39:09.172Z,31.23
2019-05-30T12:44:15.552Z,29.90
2019-05-30T12:49:21.520Z,31.35
2019-05-30T12:54:28.518Z,28.54
2019-05-30T12:59:34.584Z,29.61
2019-05-30T13:04:40.648Z,28.54
2019-05-30T13:09:46.643Z,32.77
2019-05-30T13:14:53.017Z,30.43
2019-05-30T13:19:59.136Z,31.99
2019-05-30T13:25:08.352Z,32.67
2019-05-30T13:30:15.330Z,36.07
2019-05-30T13:35:21.838Z,34.93
2019-05-30T13:40:27.750Z,34.69
2019-05-30T13:45:34.015Z,35.86
2019-05-30T13:50:40.026Z,35.20
2019-05-30T13:55:46.152Z,34.17
2019-05-30T14:00:52.798Z,30.95
2019-05-30T14:05:59.946Z,31.17
2019-05-30T14:11:06.733Z,31.62
2019-05-30T14:16:12.868Z,31.07
2019-05-30T14:21:18.985Z,31.25
2019-05-30T14:26:25.074Z,29.86
2019-05-30T14:31:31.215Z,30.52
2019-05-30T14:36:37.561Z,29.18
2019-05-30T14:41:43.542Z,31.14
2019-05-30T14:46:49.674Z,29.93
2019-05-30T14:51:55.676Z,32.08
2019-05-30T14:57:03.164Z,30.88
2019-05-30T15:02:09.255Z,29.53
2019-05-30T15:07:15.621Z,29.08
2019-05-30T15:12:21.709Z,34.59
2019-05-30T15:17:27.686Z,35.99
2019-05-30T15:22:33.650Z,34.58
2019-05-30T15:27:39.627Z,32.90
2019-05-30T15:32:45.589Z,33.96
2019-05-30T15:37:51.462Z,35.30
2019-05-30T15:42:57.325Z,34.62
2019-05-30T15:48:03.295Z,36.93
2019-05-30T15:53:10.911Z,35.48
2019-05-30T15:58:18.033Z,36.31
2019-05-30T16:03:23.970Z,37.01
2019-05-30T16:08:29.805Z,34.82
2019-05-30T16:13:35.817Z,36.80
2019-05-30T16:18:42.095Z,38.51
2019-05-30T16:23:49.839Z,36.54
2019-05-30T16:28:55.881Z,35.55
2019-05-30T16:34:10.216Z,35.95
2019-05-30T16:39:16.221Z,37.23
2019-05-30T16:44:23.928Z,37.06
2019-05-30T16:49:29.996Z,38.22
2019-05-30T16:54:35.871Z,38.23
2019-05-30T16:59:41.834Z,37.91
2019-05-30T17:04:47.706Z,38.24
2019-05-30T17:09:53.697Z,39.27
2019-05-30T17:14:59.633Z,36.16
2019-05-30T17:20:08.900Z,35.44
2019-05-30T17:25:14.973Z,34.85
2019-05-30T17:30:23.738Z,34.50
2019-05-30T17:35:29.729Z,36.48
2019-05-30T17:40:44.674Z,36.60
2019-05-30T17:45:43.259Z,37.32
2019-05-30T17:50:49.122Z,38.96
2019-05-30T17:55:54.990Z,38.25
2019-05-30T18:01:00.967Z,37.79
2019-05-30T18:06:07.065Z,37.34
2019-05-30T18:11:13.112Z,37.98
2019-05-30T18:16:19.084Z,40.09
2019-05-30T18:21:25.398Z,41.89
2019-05-30T18:26:31.899Z,46.41
2019-05-30T18:31:38.129Z,46.84
2019-05-30T18:36:44.197Z,47.66
2019-05-30T18:41:52.382Z,48.37
2019-05-30T18:47:00.250Z,48.81
2019-05-30T18:52:06.405Z,47.80
2019-05-30T18:57:12.489Z,47.89
2019-05-30T19:02:21.628Z,49.27
2019-05-30T19:07:30.916Z,49.54
2019-05-30T19:12:37.053Z,50.60
2019-05-30T19:17:43.027Z,49.95
2019-05-30T19:22:49.546Z,50.63
2019-05-30T19:27:55.509Z,51.60
2019-05-30T19:33:01.665Z,52.45
2019-05-30T19:38:07.617Z,53.52
2019-05-30T19:43:13.595Z,53.21
2019-05-30T19:48:19.465Z,52.55
2019-05-30T19:53:25.531Z,52.13
2019-05-30T19:58:31.593Z,51.77
2019-05-30T20:03:46.280Z,51.66
2019-05-30T20:08:55.062Z,51.23
2019-05-30T20:13:53.311Z,51.79
2019-05-30T20:18:59.281Z,52.31
2019-05-30T20:24:05.561Z,52.24
2019-05-30T20:29:11.482Z,52.04
2019-05-30T20:34:18.045Z,52.55
2019-05-30T20:39:24.394Z,52.61
2019-05-30T20:44:30.469Z,53.60
2019-05-30T20:49:37.114Z,53.71
2019-05-30T20:54:43.520Z,53.89
2019-05-30T20:59:49.722Z,54.33
2019-05-30T21:04:55.778Z,54.01
2019-05-30T21:10:04.008Z,54.02
2019-05-30T21:15:10.389Z,53.98
2019-05-30T21:20:17.274Z,53.70
2019-05-30T21:25:23.333Z,53.62
2019-05-30T21:30:29.323Z,53.39
2019-05-30T21:35:35.196Z,53.61
2019-05-30T21:40:42.464Z,53.61
2019-05-30T21:45:48.996Z,53.63
2019-05-30T21:50:55.034Z,53.93
2019-05-30T21:56:00.919Z,53.63
2019-05-30T22:01:23.480Z,53.61
2019-05-30T22:06:29.679Z,53.17
2019-05-30T22:11:35.727Z,53.07
2019-05-30T22:16:41.878Z,53.05
2019-05-30T22:21:48.134Z,53.19
2019-05-30T22:26:54.668Z,53.16
2019-05-30T22:32:00.531Z,53.28
2019-05-30T22:37:06.506Z,53.56
2019-05-30T22:42:12.368Z,54.02
2019-05-30T22:47:18.241Z,53.52
2019-05-30T22:52:24.208Z,53.90
2019-05-30T22:57:30.177Z,54.32
2019-05-30T23:02:36.157Z,53.55
2019-05-30T23:07:42.024Z,53.05
2019-05-30T23:12:47.885Z,53.07
2019-05-30T23:17:54.785Z,52.57
2019-05-30T23:23:00.962Z,52.60
2019-05-30T23:28:07.031Z,52.98
2019-05-30T23:33:17.689Z,52.44
2019-05-30T23:38:23.589Z,52.29
2019-05-30T23:43:30.681Z,52.20
2019-05-30T23:48:36.549Z,52.23
2019-05-30T23:53:42.422Z,52.34
2019-05-30T23:58:48.384Z,52.86
